臺北飛航情報區 - 海峽席

METAR RCTP 201530Z 05008KT 9999 FEW020 SCT170 20/17 Q1019 NOSIG RMK A3011=

站台狀態:Online
最後更新:2018-10-21 00:00:03